createdAt,value
2023-02-06T00:00:23.252Z,9.93
2023-02-06T00:02:51.609Z,8.85
2023-02-06T00:05:21.331Z,9.82
2023-02-06T00:07:49.609Z,8.82
2023-02-06T00:10:18.055Z,8.63
2023-02-06T00:12:46.375Z,8.95
2023-02-06T00:15:14.676Z,8.10
2023-02-06T00:17:42.987Z,8.60
2023-02-06T00:20:13.193Z,9.80
2023-02-06T00:22:42.939Z,8.38
2023-02-06T00:25:11.451Z,9.23
2023-02-06T00:27:39.842Z,9.70
2023-02-06T00:30:09.244Z,9.55
2023-02-06T00:32:37.626Z,9.60
2023-02-06T00:35:07.066Z,10.45
2023-02-06T00:37:35.334Z,9.35
2023-02-06T00:40:05.582Z,10.88
2023-02-06T00:42:33.867Z,9.25
2023-02-06T00:45:02.229Z,9.57
2023-02-06T00:47:30.539Z,8.95
2023-02-06T00:49:58.863Z,8.98
2023-02-06T00:52:27.153Z,10.00
2023-02-06T00:54:55.524Z,9.60
2023-02-06T00:57:25.131Z,9.35
2023-02-06T00:59:54.426Z,8.80
2023-02-06T01:02:22.824Z,9.73
2023-02-06T01:04:51.143Z,8.20
2023-02-06T01:07:19.511Z,9.75
2023-02-06T01:09:47.888Z,9.82
2023-02-06T01:12:16.266Z,10.23
2023-02-06T01:14:45.943Z,9.63
2023-02-06T01:17:14.204Z,9.52
2023-02-06T01:19:42.485Z,10.30
2023-02-06T01:22:10.733Z,9.35
2023-02-06T01:24:39.076Z,9.90
2023-02-06T01:27:07.399Z,10.05
2023-02-06T01:29:35.866Z,10.02
2023-02-06T01:32:06.734Z,9.80
2023-02-06T01:34:34.964Z,9.88
2023-02-06T01:37:03.416Z,9.85
2023-02-06T01:39:31.775Z,9.65
2023-02-06T01:42:00.143Z,8.80
2023-02-06T01:44:28.501Z,10.13
2023-02-06T01:46:57.786Z,9.55
2023-02-06T01:49:29.837Z,8.93
2023-02-06T01:52:00.256Z,10.00
2023-02-06T01:54:28.637Z,9.35
2023-02-06T01:57:00.124Z,10.15
2023-02-06T01:59:28.437Z,9.20
2023-02-06T02:01:56.761Z,8.98
2023-02-06T02:04:27.854Z,8.57
2023-02-06T02:07:05.256Z,9.07
2023-02-06T02:09:33.660Z,8.77
2023-02-06T02:12:02.004Z,9.13
2023-02-06T02:14:30.644Z,8.50
2023-02-06T02:17:07.220Z,9.30
2023-02-06T02:20:08.964Z,8.30
2023-02-06T02:22:52.726Z,8.85
2023-02-06T02:25:49.367Z,8.90
2023-02-06T02:28:47.267Z,7.50
2023-02-06T02:31:48.865Z,8.15
2023-02-06T02:34:39.742Z,7.68
2023-02-06T02:37:11.495Z,8.13
2023-02-06T02:39:43.684Z,7.90
2023-02-06T02:42:14.457Z,8.40
2023-02-06T02:44:44.780Z,7.30
2023-02-06T02:47:14.483Z,6.82
2023-02-06T02:49:44.736Z,7.53
2023-02-06T02:52:14.522Z,7.75
2023-02-06T02:54:43.523Z,7.97
2023-02-06T02:57:14.787Z,6.63
2023-02-06T02:59:44.503Z,6.80
2023-02-06T03:02:14.156Z,7.63
2023-02-06T03:04:46.117Z,6.32
2023-02-06T03:07:18.200Z,6.22
2023-02-06T03:09:51.584Z,7.10
2023-02-06T03:12:23.236Z,6.72
2023-02-06T03:14:55.061Z,6.40
2023-02-06T03:17:27.726Z,6.32
2023-02-06T03:19:57.887Z,6.20
2023-02-06T03:22:26.619Z,6.55
2023-02-06T03:24:55.219Z,6.40
2023-02-06T03:27:23.742Z,7.10
2023-02-06T03:29:52.358Z,7.10
2023-02-06T03:32:24.017Z,6.53
2023-02-06T03:34:57.166Z,6.55
2023-02-06T03:37:25.772Z,7.07
2023-02-06T03:39:54.553Z,6.75
2023-02-06T03:42:23.309Z,7.35
2023-02-06T03:44:54.606Z,7.57
2023-02-06T03:47:23.191Z,7.47
2023-02-06T03:49:52.169Z,7.18
2023-02-06T03:52:24.792Z,8.15
2023-02-06T03:54:56.633Z,6.70
2023-02-06T03:57:25.236Z,7.50
2023-02-06T03:59:53.963Z,7.80
2023-02-06T04:02:22.583Z,7.53
2023-02-06T04:04:51.230Z,8.27
2023-02-06T04:07:23.818Z,7.82
2023-02-06T04:09:52.585Z,7.93
2023-02-06T04:12:21.349Z,7.25
2023-02-06T04:14:50.003Z,7.32
2023-02-06T04:17:32.641Z,6.45
2023-02-06T04:20:07.017Z,6.95
2023-02-06T04:22:36.992Z,8.10
2023-02-06T04:25:05.759Z,6.90
2023-02-06T04:27:34.417Z,7.25
2023-02-06T04:30:03.060Z,7.18
2023-02-06T04:32:31.689Z,6.53
2023-02-06T04:35:00.377Z,7.18
2023-02-06T04:37:28.976Z,6.53
2023-02-06T04:39:58.839Z,7.38
2023-02-06T04:42:27.478Z,6.72
2023-02-06T04:44:56.028Z,7.45
2023-02-06T04:47:24.604Z,7.53
2023-02-06T04:49:53.159Z,8.15
2023-02-06T04:52:22.197Z,8.23
2023-02-06T04:54:50.765Z,6.88
2023-02-06T04:57:20.647Z,6.03
2023-02-06T04:59:49.355Z,7.40
2023-02-06T05:02:18.015Z,7.60
2023-02-06T05:04:46.595Z,6.15
2023-02-06T05:07:15.147Z,7.28
2023-02-06T05:09:43.752Z,6.30
2023-02-06T05:12:14.248Z,6.60
2023-02-06T05:14:44.358Z,6.80
2023-02-06T05:17:12.928Z,6.82
2023-02-06T05:19:41.606Z,6.55
2023-02-06T05:22:10.426Z,6.97
2023-02-06T05:24:38.984Z,7.20
2023-02-06T05:27:07.526Z,6.90
2023-02-06T05:29:36.132Z,7.20
2023-02-06T05:32:06.385Z,6.88
2023-02-06T05:34:34.956Z,5.68
2023-02-06T05:37:03.620Z,6.70
2023-02-06T05:39:32.219Z,5.85
2023-02-06T05:42:00.877Z,7.13
2023-02-06T05:44:29.743Z,6.75
2023-02-06T05:46:58.321Z,6.40
2023-02-06T05:49:28.335Z,6.05
2023-02-06T05:51:57.430Z,6.68
2023-02-06T05:54:26.294Z,5.60
2023-02-06T05:56:54.923Z,6.55
2023-02-06T05:59:23.613Z,6.78
2023-02-06T06:01:52.747Z,6.43
2023-02-06T06:04:21.386Z,6.68
2023-02-06T06:06:51.426Z,5.82
2023-02-06T06:09:20.458Z,6.22
2023-02-06T06:11:49.067Z,5.95
2023-02-06T06:14:17.660Z,5.75
2023-02-06T06:16:46.333Z,5.85
2023-02-06T06:19:14.943Z,6.50
2023-02-06T06:21:43.529Z,5.82
2023-02-06T06:24:13.753Z,6.22
2023-02-06T06:26:42.284Z,6.30
2023-02-06T06:29:11.669Z,5.95
2023-02-06T06:31:40.286Z,5.53
2023-02-06T06:34:08.904Z,6.18
2023-02-06T06:36:37.609Z,7.22
2023-02-06T06:39:06.357Z,7.22
2023-02-06T06:41:36.327Z,6.82
2023-02-06T06:44:05.820Z,7.10
2023-02-06T06:46:34.455Z,6.60
2023-02-06T06:49:03.193Z,6.72
2023-02-06T06:51:31.830Z,7.15
2023-02-06T06:54:00.456Z,6.45
2023-02-06T06:56:29.021Z,6.55
2023-02-06T06:58:58.941Z,7.15
2023-02-06T07:01:27.684Z,6.80
2023-02-06T07:03:56.232Z,7.30
2023-02-06T07:06:24.816Z,7.45
2023-02-06T07:08:53.402Z,5.60
2023-02-06T07:11:22.609Z,10.55
2023-02-06T07:13:51.174Z,14.65
2023-02-06T07:16:21.146Z,12.48
2023-02-06T07:18:49.777Z,19.27
2023-02-06T07:21:19.907Z,10.50
2023-02-06T07:23:48.649Z,7.70
2023-02-06T07:26:17.268Z,7.95
2023-02-06T07:28:46.132Z,17.70
2023-02-06T07:31:14.725Z,18.55
2023-02-06T07:33:44.761Z,12.80
2023-02-06T07:36:13.796Z,11.55
2023-02-06T07:38:42.393Z,8.13
2023-02-06T07:41:12.703Z,8.13
2023-02-06T07:43:41.494Z,7.85
2023-02-06T07:46:10.126Z,8.23
2023-02-06T07:48:38.845Z,7.20
2023-02-06T07:51:09.509Z,7.97
2023-02-06T07:53:38.208Z,10.80
2023-02-06T07:56:12.242Z,8.40
2023-02-06T07:58:40.841Z,8.40
2023-02-06T08:01:09.461Z,7.47
2023-02-06T08:03:38.196Z,7.82
2023-02-06T08:06:11.687Z,8.13
2023-02-06T08:08:40.324Z,7.72
2023-02-06T08:11:09.551Z,7.40
2023-02-06T08:13:38.144Z,11.38
2023-02-06T08:16:07.648Z,15.93
2023-02-06T08:18:36.213Z,9.93
2023-02-06T08:21:05.240Z,8.13
2023-02-06T08:23:35.430Z,7.68
2023-02-06T08:26:04.999Z,8.20
2023-02-06T08:28:35.120Z,8.35
2023-02-06T08:31:09.448Z,8.00
2023-02-06T08:33:38.095Z,8.73
2023-02-06T08:36:07.682Z,8.20
2023-02-06T08:38:37.700Z,8.40
2023-02-06T08:41:06.521Z,8.70
2023-02-06T08:43:35.869Z,8.38
2023-02-06T08:46:04.513Z,7.70
2023-02-06T08:48:33.445Z,8.55
2023-02-06T08:51:05.662Z,8.18
2023-02-06T08:53:36.404Z,8.23
2023-02-06T08:56:06.209Z,8.35
2023-02-06T08:58:34.902Z,8.32
2023-02-06T09:01:08.271Z,8.90
2023-02-06T09:03:36.876Z,8.45
2023-02-06T09:06:10.355Z,8.80
2023-02-06T09:08:40.589Z,8.25
2023-02-06T09:11:09.624Z,9.00
2023-02-06T09:13:38.243Z,9.75
2023-02-06T09:16:07.612Z,10.23
2023-02-06T09:18:36.944Z,8.73
2023-02-06T09:21:10.155Z,9.52
2023-02-06T09:23:40.078Z,9.57
2023-02-06T09:26:08.687Z,11.90
2023-02-06T09:28:37.248Z,13.52
2023-02-06T09:31:05.996Z,12.10
2023-02-06T09:33:34.653Z,11.80
2023-02-06T09:36:04.850Z,11.35
2023-02-06T09:38:33.478Z,12.70
2023-02-06T09:41:08.087Z,11.20
2023-02-06T09:43:36.946Z,11.90
2023-02-06T09:46:06.995Z,12.93
2023-02-06T09:48:37.386Z,14.20
2023-02-06T09:51:10.937Z,15.13
2023-02-06T09:53:44.130Z,15.70
2023-02-06T09:56:18.670Z,13.55
2023-02-06T09:58:50.449Z,12.63
2023-02-06T10:01:21.443Z,13.20
2023-02-06T10:04:01.795Z,14.73
2023-02-06T10:06:31.248Z,13.88
2023-02-06T10:09:02.915Z,12.73
2023-02-06T10:11:42.830Z,14.05
2023-02-06T10:14:14.039Z,14.02
2023-02-06T10:16:45.669Z,15.15
2023-02-06T10:19:16.873Z,14.68
2023-02-06T10:21:48.441Z,14.52
2023-02-06T10:24:19.840Z,15.15
2023-02-06T10:26:49.770Z,15.32
2023-02-06T10:29:22.521Z,16.02
2023-02-06T10:32:00.198Z,16.60
2023-02-06T10:34:40.217Z,17.38
2023-02-06T10:37:19.881Z,18.88
2023-02-06T10:40:01.937Z,19.48
2023-02-06T10:42:38.071Z,19.90
2023-02-06T10:45:19.668Z,18.67
2023-02-06T10:47:51.282Z,18.30
2023-02-06T10:50:23.130Z,17.95
2023-02-06T10:52:51.716Z,15.43
2023-02-06T10:55:21.787Z,16.35
2023-02-06T10:57:54.673Z,17.55
2023-02-06T11:00:25.010Z,16.15
2023-02-06T11:03:06.802Z,20.05
2023-02-06T11:05:37.373Z,18.90
2023-02-06T11:08:12.065Z,19.38
2023-02-06T11:10:40.775Z,17.85
2023-02-06T11:13:14.143Z,17.15
2023-02-06T11:15:45.990Z,15.40
2023-02-06T11:18:15.990Z,16.40
2023-02-06T11:20:44.936Z,14.13
2023-02-06T11:23:18.557Z,15.25
2023-02-06T11:25:47.608Z,15.23
2023-02-06T11:28:20.228Z,14.65
2023-02-06T11:30:56.947Z,14.18
2023-02-06T11:33:28.736Z,13.43
2023-02-06T11:35:59.062Z,12.35
2023-02-06T11:38:29.506Z,13.07
2023-02-06T11:41:01.447Z,13.23
2023-02-06T11:43:32.780Z,13.75
2023-02-06T11:46:16.043Z,14.40
2023-02-06T11:48:45.410Z,13.10
2023-02-06T11:51:14.476Z,12.38
2023-02-06T11:53:56.777Z,13.85
2023-02-06T11:56:25.394Z,12.75
2023-02-06T11:59:07.121Z,12.73
2023-02-06T12:01:45.079Z,12.43
2023-02-06T12:04:23.649Z,11.30
2023-02-06T12:06:57.076Z,11.43
2023-02-06T12:09:25.720Z,10.73
2023-02-06T12:11:57.888Z,11.80
2023-02-06T12:14:31.185Z,10.65
2023-02-06T12:16:59.847Z,10.65
2023-02-06T12:19:31.681Z,11.02
2023-02-06T12:22:03.172Z,11.48
2023-02-06T12:24:32.996Z,10.57
2023-02-06T12:27:03.732Z,9.05
2023-02-06T12:29:36.021Z,9.93
2023-02-06T12:32:08.787Z,10.27
2023-02-06T12:34:49.604Z,7.88
2023-02-06T12:37:21.429Z,9.32
2023-02-06T12:39:50.047Z,9.90
2023-02-06T12:42:36.941Z,9.68
2023-02-06T12:45:13.466Z,9.15
2023-02-06T12:47:44.253Z,8.93
2023-02-06T12:50:15.328Z,10.02
2023-02-06T12:52:45.944Z,10.25
2023-02-06T12:55:18.894Z,9.15
2023-02-06T12:57:47.651Z,8.98
2023-02-06T13:00:40.564Z,8.60
2023-02-06T13:03:28.297Z,9.07
2023-02-06T13:06:01.664Z,8.63
2023-02-06T13:08:32.101Z,9.02
2023-02-06T13:11:02.833Z,8.05
2023-02-06T13:13:32.756Z,7.88
2023-02-06T13:16:02.779Z,8.20
2023-02-06T13:18:53.219Z,7.93
2023-02-06T13:21:24.126Z,8.90
2023-02-06T13:24:12.876Z,7.38
2023-02-06T13:27:03.984Z,7.05
2023-02-06T13:29:33.661Z,7.30
2023-02-06T13:32:33.050Z,7.95
2023-02-06T13:35:15.345Z,7.60
2023-02-06T13:37:45.911Z,8.35
2023-02-06T13:40:30.854Z,7.60
2023-02-06T13:43:01.622Z,7.95
2023-02-06T13:45:32.240Z,9.05
2023-02-06T13:48:38.594Z,8.45
2023-02-06T13:51:16.822Z,8.48
2023-02-06T13:54:20.797Z,7.50
2023-02-06T13:57:00.522Z,8.00
2023-02-06T13:59:30.320Z,9.10
2023-02-06T14:01:58.964Z,8.63
2023-02-06T14:04:29.841Z,8.65
2023-02-06T14:07:22.762Z,10.77
2023-02-06T14:10:06.581Z,8.88
2023-02-06T14:12:45.080Z,8.13
2023-02-06T14:15:19.571Z,8.85
2023-02-06T14:17:57.557Z,11.95
2023-02-06T14:20:32.940Z,7.78
2023-02-06T14:23:05.824Z,7.00
2023-02-06T14:25:41.873Z,6.40
2023-02-06T14:28:15.284Z,6.88
2023-02-06T14:30:47.034Z,7.50
2023-02-06T14:33:27.069Z,8.35
2023-02-06T14:36:06.306Z,7.13
2023-02-06T14:39:03.677Z,7.43
2023-02-06T14:41:33.139Z,7.07
2023-02-06T14:44:02.145Z,5.93
2023-02-06T14:46:30.748Z,6.70
2023-02-06T14:48:59.501Z,7.32
2023-02-06T14:51:32.178Z,6.30
2023-02-06T14:54:02.591Z,7.63
2023-02-06T14:56:32.248Z,8.35
2023-02-06T14:59:15.852Z,7.45
2023-02-06T15:01:45.195Z,7.18
2023-02-06T15:04:15.594Z,7.93
2023-02-06T15:06:51.536Z,8.05
2023-02-06T15:09:28.151Z,6.90
2023-02-06T15:11:58.013Z,6.93
2023-02-06T15:14:27.479Z,7.35
2023-02-06T15:16:59.799Z,7.93
2023-02-06T15:19:29.155Z,7.70
2023-02-06T15:22:01.272Z,9.20
2023-02-06T15:24:52.593Z,7.65
2023-02-06T15:27:27.633Z,8.40
2023-02-06T15:29:56.254Z,8.80
2023-02-06T15:32:30.741Z,7.68
2023-02-06T15:34:59.385Z,8.27
2023-02-06T15:37:31.104Z,8.75
2023-02-06T15:40:02.478Z,7.90
2023-02-06T15:42:31.041Z,8.98
2023-02-06T15:44:59.679Z,7.88
2023-02-06T15:47:28.255Z,8.00
2023-02-06T15:50:00.318Z,7.68
2023-02-06T15:52:39.495Z,7.28
2023-02-06T15:55:08.438Z,8.48
2023-02-06T15:57:39.434Z,7.88
2023-02-06T16:00:10.133Z,8.50
2023-02-06T16:02:40.057Z,6.97
2023-02-06T16:05:09.413Z,9.43
2023-02-06T16:07:39.430Z,9.75
2023-02-06T16:10:19.560Z,9.18
2023-02-06T16:12:48.128Z,9.10
2023-02-06T16:15:37.882Z,8.43
2023-02-06T16:18:25.574Z,24.80
2023-02-06T16:21:10.838Z,14.00
2023-02-06T16:23:49.992Z,10.57
2023-02-06T16:26:20.293Z,8.80
2023-02-06T16:28:54.072Z,9.15
2023-02-06T16:31:22.932Z,8.98
2023-02-06T16:33:52.307Z,8.05
2023-02-06T16:36:21.659Z,8.77
2023-02-06T16:39:03.166Z,8.68
2023-02-06T16:41:34.196Z,7.45
2023-02-06T16:44:03.100Z,7.50
2023-02-06T16:46:32.268Z,11.35
2023-02-06T16:49:00.925Z,11.07
2023-02-06T16:51:31.019Z,12.30
2023-02-06T16:54:01.010Z,10.60
2023-02-06T16:56:29.670Z,9.50
2023-02-06T16:58:58.262Z,9.48
2023-02-06T17:01:29.514Z,9.70
2023-02-06T17:03:58.282Z,9.13
2023-02-06T17:06:28.267Z,10.80
2023-02-06T17:09:01.998Z,16.20
2023-02-06T17:11:31.995Z,11.50
2023-02-06T17:14:00.598Z,11.40
2023-02-06T17:16:29.749Z,9.60
2023-02-06T17:18:58.348Z,12.00
2023-02-06T17:21:29.744Z,10.82
2023-02-06T17:23:58.314Z,12.23
2023-02-06T17:26:26.881Z,22.67
2023-02-06T17:28:56.893Z,23.30
2023-02-06T17:31:25.825Z,20.85
2023-02-06T17:33:54.593Z,18.98
2023-02-06T17:36:29.420Z,16.05
2023-02-06T17:38:58.929Z,17.30
2023-02-06T17:41:27.714Z,16.45
2023-02-06T17:43:57.733Z,14.15
2023-02-06T17:46:26.358Z,13.88
2023-02-06T17:48:55.257Z,15.77
2023-02-06T17:51:23.928Z,16.35
2023-02-06T17:53:52.617Z,14.15
2023-02-06T17:56:21.265Z,13.63
2023-02-06T17:58:49.892Z,15.68
2023-02-06T18:01:21.375Z,24.33
2023-02-06T18:03:50.320Z,22.50
2023-02-06T18:06:19.174Z,17.75
2023-02-06T18:08:47.900Z,16.02
2023-02-06T18:11:18.125Z,17.98
2023-02-06T18:13:47.296Z,17.92
2023-02-06T18:16:16.662Z,16.02
2023-02-06T18:18:47.322Z,17.90
2023-02-06T18:21:16.085Z,15.68
2023-02-06T18:23:44.785Z,16.70
2023-02-06T18:26:13.467Z,14.57
2023-02-06T18:28:42.044Z,14.85
2023-02-06T18:31:22.259Z,13.45
2023-02-06T18:33:52.422Z,16.05
2023-02-06T18:36:21.213Z,16.88
2023-02-06T18:38:49.850Z,16.75
2023-02-06T18:41:35.778Z,17.48
2023-02-06T18:44:05.000Z,17.20
2023-02-06T18:46:33.671Z,20.95
2023-02-06T18:49:03.688Z,21.73
2023-02-06T18:51:32.236Z,22.98
2023-02-06T18:54:00.893Z,24.15
2023-02-06T18:56:30.576Z,21.23
2023-02-06T18:58:59.492Z,19.95
2023-02-06T19:01:28.215Z,19.70
2023-02-06T19:03:57.384Z,17.98
2023-02-06T19:06:29.872Z,16.42
2023-02-06T19:08:58.695Z,16.92
2023-02-06T19:11:27.551Z,17.80
2023-02-06T19:13:56.697Z,19.48
2023-02-06T19:16:26.448Z,19.25
2023-02-06T19:18:55.216Z,25.52
2023-02-06T19:21:25.264Z,34.38
2023-02-06T19:23:57.428Z,39.13
2023-02-06T19:26:26.261Z,39.90
2023-02-06T19:28:54.880Z,31.55
2023-02-06T19:31:24.657Z,29.52
2023-02-06T19:33:54.207Z,28.35
2023-02-06T19:36:23.204Z,26.75
2023-02-06T19:38:54.599Z,27.08
2023-02-06T19:41:25.458Z,26.38
2023-02-06T19:43:54.668Z,25.33
2023-02-06T19:46:25.250Z,23.77
2023-02-06T19:48:54.201Z,27.75
2023-02-06T19:51:23.928Z,29.35
2023-02-06T19:53:52.851Z,29.13
2023-02-06T19:56:23.695Z,35.38
2023-02-06T19:58:56.034Z,45.33
2023-02-06T20:01:25.288Z,48.58
2023-02-06T20:03:53.938Z,54.97
2023-02-06T20:06:22.896Z,59.30
2023-02-06T20:08:51.487Z,56.28
2023-02-06T20:11:21.747Z,51.33
2023-02-06T20:13:53.853Z,43.97
2023-02-06T20:16:23.215Z,41.22
2023-02-06T20:18:51.937Z,42.67
2023-02-06T20:21:22.279Z,40.25
2023-02-06T20:23:51.270Z,38.53
2023-02-06T20:26:20.508Z,38.78
2023-02-06T20:28:50.450Z,33.25
2023-02-06T20:31:19.118Z,31.08
2023-02-06T20:33:47.954Z,30.83
2023-02-06T20:36:17.777Z,28.52
2023-02-06T20:38:49.212Z,29.27
2023-02-06T20:41:17.931Z,27.52
2023-02-06T20:43:48.067Z,29.00
2023-02-06T20:46:18.318Z,32.95
2023-02-06T20:48:47.642Z,33.35
2023-02-06T20:51:16.421Z,39.40
2023-02-06T20:53:45.291Z,31.05
2023-02-06T20:56:15.432Z,28.90
2023-02-06T20:58:44.249Z,25.75
2023-02-06T21:01:18.690Z,24.17
2023-02-06T21:03:47.582Z,23.63
2023-02-06T21:06:16.192Z,20.73
2023-02-06T21:08:46.107Z,21.10
2023-02-06T21:11:14.720Z,20.27
2023-02-06T21:13:43.359Z,20.98
2023-02-06T21:16:13.632Z,19.52
2023-02-06T21:18:43.628Z,20.38
2023-02-06T21:21:14.629Z,19.13
2023-02-06T21:23:43.716Z,18.50
2023-02-06T21:26:14.008Z,21.95
2023-02-06T21:28:42.982Z,22.08
2023-02-06T21:31:13.728Z,21.08
2023-02-06T21:33:43.746Z,20.55
2023-02-06T21:36:12.389Z,23.75
2023-02-06T21:38:41.188Z,25.90
2023-02-06T21:41:11.118Z,24.45
2023-02-06T21:43:39.746Z,22.88
2023-02-06T21:46:08.641Z,21.35
2023-02-06T21:48:37.290Z,22.63
2023-02-06T21:51:11.401Z,21.02
2023-02-06T21:53:40.280Z,19.73
2023-02-06T21:56:09.286Z,21.20
2023-02-06T21:58:38.049Z,21.10
2023-02-06T22:01:08.913Z,22.27
2023-02-06T22:03:37.882Z,21.42
2023-02-06T22:06:09.029Z,21.08
2023-02-06T22:08:39.232Z,20.45
2023-02-06T22:11:13.730Z,21.35
2023-02-06T22:13:42.683Z,21.30
2023-02-06T22:16:12.040Z,20.08
2023-02-06T22:18:40.700Z,19.38
2023-02-06T22:21:10.459Z,23.98
2023-02-06T22:23:41.359Z,22.95
2023-02-06T22:26:10.195Z,20.05
2023-02-06T22:28:38.812Z,19.52
2023-02-06T22:31:08.151Z,18.73
2023-02-06T22:33:36.811Z,18.35
2023-02-06T22:36:06.494Z,19.23
2023-02-06T22:38:35.314Z,20.73
2023-02-06T22:41:06.492Z,19.05
2023-02-06T22:43:35.941Z,19.60
2023-02-06T22:46:04.572Z,18.52
2023-02-06T22:48:33.702Z,18.35
2023-02-06T22:51:06.534Z,19.95
2023-02-06T22:53:35.216Z,37.92
2023-02-06T22:56:23.301Z,26.98
2023-02-06T22:58:52.036Z,23.13
2023-02-06T23:01:21.732Z,21.45
2023-02-06T23:03:52.162Z,20.15
2023-02-06T23:06:21.078Z,18.63
2023-02-06T23:08:49.798Z,15.23
2023-02-06T23:11:20.184Z,16.35
2023-02-06T23:13:51.891Z,15.73
2023-02-06T23:16:20.716Z,16.05
2023-02-06T23:18:49.419Z,14.10
2023-02-06T23:21:20.813Z,17.17
2023-02-06T23:23:49.617Z,17.17
2023-02-06T23:26:20.288Z,15.50
2023-02-06T23:28:48.883Z,15.68
2023-02-06T23:31:17.559Z,15.20
2023-02-06T23:33:46.320Z,14.75
2023-02-06T23:36:16.265Z,16.08
2023-02-06T23:38:45.099Z,17.50
2023-02-06T23:41:15.688Z,17.38
2023-02-06T23:43:45.718Z,16.13
2023-02-06T23:46:15.468Z,14.30
2023-02-06T23:48:44.105Z,15.75
2023-02-06T23:51:12.719Z,13.85
2023-02-06T23:53:41.349Z,15.20
2023-02-06T23:56:13.470Z,15.13
2023-02-06T23:58:42.077Z,16.85
